createdAt,value
2018-05-31T00:00:53.461Z,1008.91
2018-05-31T00:02:02.649Z,1008.89
2018-05-31T00:03:13.300Z,1008.91
2018-05-31T00:04:22.834Z,1008.91
2018-05-31T00:05:32.594Z,1008.92
2018-05-31T00:06:41.555Z,1008.92
2018-05-31T00:07:51.576Z,1008.93
2018-05-31T00:09:01.347Z,1008.91
2018-05-31T00:10:11.078Z,1008.91
2018-05-31T00:11:20.564Z,1008.92
2018-05-31T00:12:30.073Z,1008.88
2018-05-31T00:13:40.061Z,1008.92
2018-05-31T00:14:48.712Z,1008.91
2018-05-31T00:15:58.692Z,1008.86
2018-05-31T00:17:07.896Z,1008.84
2018-05-31T00:18:17.091Z,1008.83
2018-05-31T00:19:26.597Z,1008.81
2018-05-31T00:20:36.298Z,1008.84
2018-05-31T00:21:45.754Z,1008.84
2018-05-31T00:22:54.978Z,1008.83
2018-05-31T00:24:04.187Z,1008.88
2018-05-31T00:25:13.995Z,1008.86
2018-05-31T00:26:23.945Z,1008.86
2018-05-31T00:27:33.397Z,1008.88
2018-05-31T00:28:43.112Z,1008.92
2018-05-31T00:29:52.838Z,1008.91
2018-05-31T00:31:02.840Z,1008.87
2018-05-31T00:32:12.314Z,1008.88
2018-05-31T00:33:21.833Z,1008.91
2018-05-31T00:34:31.556Z,1008.87
2018-05-31T00:35:41.443Z,1008.84
2018-05-31T00:36:51.573Z,1008.9
2018-05-31T00:38:01.333Z,1008.94
2018-05-31T00:39:10.911Z,1008.92
2018-05-31T00:40:21.246Z,1008.95
2018-05-31T00:41:31.731Z,1008.92
2018-05-31T00:42:40.977Z,1008.92
2018-05-31T00:43:51.041Z,1008.93
2018-05-31T00:45:00.755Z,1008.91
2018-05-31T00:46:09.687Z,1008.88
2018-05-31T00:47:18.890Z,1008.88
2018-05-31T00:48:28.401Z,1008.87
2018-05-31T00:49:37.877Z,1008.85
2018-05-31T00:50:47.331Z,1008.84
2018-05-31T00:51:56.821Z,1008.88
2018-05-31T00:53:05.724Z,1008.86
2018-05-31T00:54:14.908Z,1008.91
2018-05-31T00:55:24.426Z,1008.92
2018-05-31T00:56:34.162Z,1008.95
2018-05-31T00:57:43.891Z,1008.96
2018-05-31T00:58:53.386Z,1009.01
2018-05-31T01:00:02.851Z,1009
2018-05-31T01:01:12.060Z,1009.02
2018-05-31T01:02:22.072Z,1009.05
2018-05-31T01:03:31.264Z,1009.04
2018-05-31T01:04:40.978Z,1009.05
2018-05-31T01:05:50.168Z,1009.07
2018-05-31T01:06:59.659Z,1009.05
2018-05-31T01:08:09.417Z,1009.01
2018-05-31T01:09:19.142Z,1009.02
2018-05-31T01:10:28.881Z,1008.98
2018-05-31T01:11:39.917Z,1009
2018-05-31T01:12:50.160Z,1009.01
2018-05-31T01:13:59.521Z,1008.99
2018-05-31T01:15:08.418Z,1009.02
2018-05-31T01:16:18.607Z,1009.03
2018-05-31T01:17:28.061Z,1009.04
2018-05-31T01:18:37.517Z,1009.04
2018-05-31T01:19:47.959Z,1009.01
2018-05-31T01:20:57.433Z,1009.02
2018-05-31T01:22:07.172Z,1009.07
2018-05-31T01:23:16.380Z,1009.05
2018-05-31T01:24:25.848Z,1009.02
2018-05-31T01:25:35.569Z,1009.01
2018-05-31T01:26:44.754Z,1009
2018-05-31T01:27:54.212Z,1008.97
2018-05-31T01:29:03.409Z,1008.97
2018-05-31T01:30:12.640Z,1008.98
2018-05-31T01:31:22.081Z,1009.01
2018-05-31T01:32:31.057Z,1009.02
2018-05-31T01:33:40.246Z,1009.03
2018-05-31T01:34:50.274Z,1009.04
2018-05-31T01:36:00.023Z,1009.02
2018-05-31T01:37:09.500Z,1008.98
2018-05-31T01:38:18.995Z,1008.99
2018-05-31T01:39:28.524Z,1008.95
2018-05-31T01:40:37.993Z,1008.98
2018-05-31T01:41:47.194Z,1008.96
2018-05-31T01:42:56.682Z,1009
2018-05-31T01:44:06.139Z,1009.09
2018-05-31T01:45:16.126Z,1009.2
2018-05-31T01:46:26.646Z,1009.15
2018-05-31T01:47:37.664Z,1009.1
2018-05-31T01:48:48.636Z,1009.15
2018-05-31T01:49:58.193Z,1009.14
2018-05-31T01:51:07.712Z,1009.2
2018-05-31T01:52:17.183Z,1009.2
2018-05-31T01:53:27.308Z,1009.12
2018-05-31T01:54:37.347Z,1009.08
2018-05-31T01:55:46.574Z,1009.08
2018-05-31T01:56:56.544Z,1009.06
2018-05-31T01:58:06.003Z,1009.03
2018-05-31T01:59:15.258Z,1009.01
2018-05-31T02:00:24.777Z,1009.09
2018-05-31T02:01:34.547Z,1009.11
2018-05-31T02:02:44.328Z,1009.1
2018-05-31T02:03:54.113Z,1009.07
2018-05-31T02:05:02.776Z,1009.05
2018-05-31T02:06:12.235Z,1008.99
2018-05-31T02:07:21.954Z,1009.03
2018-05-31T02:08:31.462Z,1009
2018-05-31T02:09:41.507Z,1009.03
2018-05-31T02:10:50.958Z,1009.03
2018-05-31T02:12:00.404Z,1008.99
2018-05-31T02:13:09.605Z,1009.01
2018-05-31T02:14:19.345Z,1008.98
2018-05-31T02:15:28.577Z,1009.03
2018-05-31T02:16:37.501Z,1009.07
2018-05-31T02:17:46.981Z,1009.09
2018-05-31T02:18:56.752Z,1009.04
2018-05-31T02:20:06.989Z,1009.01
2018-05-31T02:21:18.114Z,1008.98
2018-05-31T02:22:28.581Z,1009
2018-05-31T02:23:37.837Z,1009.06
2018-05-31T02:24:47.516Z,1009.07
2018-05-31T02:25:56.729Z,1009.1
2018-05-31T02:27:06.480Z,1009.08
2018-05-31T02:28:15.382Z,1009.08
2018-05-31T02:29:25.134Z,1009.07
2018-05-31T02:30:34.048Z,1009.1
2018-05-31T02:31:44.055Z,1009.12
2018-05-31T02:32:53.540Z,1009.14
2018-05-31T02:34:02.972Z,1009.16
2018-05-31T02:35:12.228Z,1009.2
2018-05-31T02:36:21.442Z,1009.19
2018-05-31T02:37:30.902Z,1009.17
2018-05-31T02:38:40.351Z,1009.18
2018-05-31T02:39:49.833Z,1009.15
2018-05-31T02:40:59.360Z,1009.15
2018-05-31T02:42:08.860Z,1009.11
2018-05-31T02:43:18.058Z,1009.13
2018-05-31T02:44:26.976Z,1009.13
2018-05-31T02:45:36.488Z,1009.15
2018-05-31T02:46:45.158Z,1009.13
2018-05-31T02:47:54.099Z,1009.1
2018-05-31T02:49:03.538Z,1009.11
2018-05-31T02:50:12.991Z,1009.16
2018-05-31T02:51:22.726Z,1009.12
2018-05-31T02:52:32.464Z,1009.16
2018-05-31T02:53:42.241Z,1009.22
2018-05-31T02:54:51.433Z,1009.25
2018-05-31T02:56:00.611Z,1009.26
2018-05-31T02:57:10.336Z,1009.3
2018-05-31T02:58:20.317Z,1009.29
2018-05-31T02:59:31.280Z,1009.34
2018-05-31T03:00:41.730Z,1009.34
2018-05-31T03:01:51.795Z,1009.33
2018-05-31T03:03:01.562Z,1009.29
2018-05-31T03:04:10.751Z,1009.32
2018-05-31T03:05:20.232Z,1009.3
2018-05-31T03:06:29.688Z,1009.29
2018-05-31T03:07:39.205Z,1009.31
2018-05-31T03:08:48.545Z,1009.33
2018-05-31T03:09:58.280Z,1009.32
2018-05-31T03:11:07.223Z,1009.32
2018-05-31T03:12:16.954Z,1009.33
2018-05-31T03:13:26.182Z,1009.28
2018-05-31T03:14:35.909Z,1009.23
2018-05-31T03:15:44.855Z,1009.26
2018-05-31T03:16:54.069Z,1009.24
2018-05-31T03:18:03.789Z,1009.22
2018-05-31T03:19:13.038Z,1009.25
2018-05-31T03:20:22.773Z,1009.24
2018-05-31T03:21:32.496Z,1009.25
2018-05-31T03:22:41.694Z,1009.26
2018-05-31T03:23:51.186Z,1009.27
2018-05-31T03:25:00.379Z,1009.23
2018-05-31T03:26:09.345Z,1009.3
2018-05-31T03:27:18.795Z,1009.33
2018-05-31T03:28:27.974Z,1009.38
2018-05-31T03:29:37.674Z,1009.41
2018-05-31T03:30:47.137Z,1009.42
2018-05-31T03:31:57.157Z,1009.38
2018-05-31T03:33:07.164Z,1009.37
2018-05-31T03:34:16.939Z,1009.31
2018-05-31T03:35:26.660Z,1009.31
2018-05-31T03:36:36.165Z,1009.28
2018-05-31T03:37:46.668Z,1009.28
2018-05-31T03:38:56.600Z,1009.3
2018-05-31T03:40:06.875Z,1009.31
2018-05-31T03:41:16.782Z,1009.32
2018-05-31T03:42:25.968Z,1009.31
2018-05-31T03:43:35.149Z,1009.3
2018-05-31T03:44:44.852Z,1009.29
2018-05-31T03:45:54.054Z,1009.27
2018-05-31T03:47:03.250Z,1009.24
2018-05-31T03:48:12.986Z,1009.26
2018-05-31T03:49:22.172Z,1009.28
2018-05-31T03:50:32.175Z,1009.31
2018-05-31T03:51:41.348Z,1009.34
2018-05-31T03:52:51.370Z,1009.38
2018-05-31T03:54:01.150Z,1009.38
2018-05-31T03:55:10.612Z,1009.38
2018-05-31T03:56:20.073Z,1009.34
2018-05-31T03:57:29.545Z,1009.31
2018-05-31T03:58:39.011Z,1009.32
2018-05-31T03:59:47.925Z,1009.3
2018-05-31T04:00:57.373Z,1009.26
2018-05-31T04:02:06.550Z,1009.26
2018-05-31T04:03:16.016Z,1009.26
2018-05-31T04:04:25.736Z,1009.24
2018-05-31T04:05:35.729Z,1009.26
2018-05-31T04:06:45.166Z,1009.26
2018-05-31T04:07:54.666Z,1009.27
2018-05-31T04:09:04.121Z,1009.25
2018-05-31T04:10:13.840Z,1009.25
2018-05-31T04:11:23.298Z,1009.22
2018-05-31T04:12:32.500Z,1009.23
2018-05-31T04:13:43.465Z,1009.23
2018-05-31T04:14:52.854Z,1009.23
2018-05-31T04:16:03.156Z,1009.2
2018-05-31T04:17:12.748Z,1009.22
2018-05-31T04:18:23.428Z,1009.21
2018-05-31T04:19:32.625Z,1009.19
2018-05-31T04:20:42.340Z,1009.22
2018-05-31T04:21:52.061Z,1009.25
2018-05-31T04:23:01.520Z,1009.24
2018-05-31T04:24:10.716Z,1009.23
2018-05-31T04:25:19.912Z,1009.24
2018-05-31T04:26:29.650Z,1009.27
2018-05-31T04:27:38.568Z,1009.28
2018-05-31T04:28:48.039Z,1009.29
2018-05-31T04:29:57.486Z,1009.31
2018-05-31T04:31:06.950Z,1009.35
2018-05-31T04:32:16.427Z,1009.34
2018-05-31T04:33:26.173Z,1009.37
2018-05-31T04:34:35.985Z,1009.39
2018-05-31T04:35:46.023Z,1009.36
2018-05-31T04:36:55.256Z,1009.37
2018-05-31T04:38:04.708Z,1009.39
2018-05-31T04:39:14.144Z,1009.41
2018-05-31T04:40:23.606Z,1009.38
2018-05-31T04:41:32.518Z,1009.39
2018-05-31T04:42:41.965Z,1009.32
2018-05-31T04:43:50.864Z,1009.32
2018-05-31T04:45:00.577Z,1009.33
2018-05-31T04:46:09.777Z,1009.33
2018-05-31T04:47:18.969Z,1009.33
2018-05-31T04:48:28.410Z,1009.36
2018-05-31T04:49:37.850Z,1009.36
2018-05-31T04:50:47.048Z,1009.41
2018-05-31T04:51:55.710Z,1009.4
2018-05-31T04:53:05.414Z,1009.45
2018-05-31T04:54:15.039Z,1009.43
2018-05-31T04:55:25.058Z,1009.4
2018-05-31T04:56:35.105Z,1009.42
2018-05-31T04:57:44.941Z,1009.41
2018-05-31T04:58:55.411Z,1009.45
2018-05-31T05:00:04.877Z,1009.41
2018-05-31T05:01:14.294Z,1009.41
2018-05-31T05:02:23.982Z,1009.44
2018-05-31T05:03:33.440Z,1009.46
2018-05-31T05:04:43.164Z,1009.47
2018-05-31T05:05:53.178Z,1009.46
2018-05-31T05:07:02.632Z,1009.45
2018-05-31T05:08:11.826Z,1009.48
2018-05-31T05:09:21.557Z,1009.47
2018-05-31T05:10:30.743Z,1009.48
2018-05-31T05:11:40.225Z,1009.45
2018-05-31T05:12:49.957Z,1009.44
2018-05-31T05:13:59.674Z,1009.43
2018-05-31T05:15:09.695Z,1009.42
2018-05-31T05:16:18.891Z,1009.42
2018-05-31T05:17:27.789Z,1009.44
2018-05-31T05:18:37.570Z,1009.42
2018-05-31T05:19:46.485Z,1009.4
2018-05-31T05:20:55.700Z,1009.45
2018-05-31T05:22:05.238Z,1009.46
2018-05-31T05:23:14.154Z,1009.49
2018-05-31T05:24:23.056Z,1009.48
2018-05-31T05:25:32.807Z,1009.49
2018-05-31T05:26:41.719Z,1009.51
2018-05-31T05:27:50.901Z,1009.51
2018-05-31T05:29:00.620Z,1009.54
2018-05-31T05:30:10.081Z,1009.55
2018-05-31T05:31:20.889Z,1009.56
2018-05-31T05:32:30.799Z,1009.56
2018-05-31T05:33:40.878Z,1009.59
2018-05-31T05:34:50.478Z,1009.58
2018-05-31T05:36:00.992Z,1009.67
2018-05-31T05:37:10.472Z,1009.7
2018-05-31T05:38:19.945Z,1009.7
2018-05-31T05:39:29.683Z,1009.71
2018-05-31T05:40:38.595Z,1009.77
2018-05-31T05:41:47.806Z,1009.75
2018-05-31T05:42:57.285Z,1009.78
2018-05-31T05:44:06.476Z,1009.74
2018-05-31T05:45:15.923Z,1009.75
2018-05-31T05:46:25.118Z,1009.79
2018-05-31T05:47:34.899Z,1009.8
2018-05-31T05:48:44.334Z,1009.82
2018-05-31T05:49:53.521Z,1009.8
2018-05-31T05:51:03.024Z,1009.83
2018-05-31T05:52:12.202Z,1009.79
2018-05-31T05:53:21.683Z,1009.83
2018-05-31T05:54:31.131Z,1009.82
2018-05-31T05:55:40.874Z,1009.85
2018-05-31T05:56:50.609Z,1009.85
2018-05-31T05:58:00.362Z,1009.84
2018-05-31T05:59:09.804Z,1009.86
2018-05-31T06:00:19.030Z,1009.84
2018-05-31T06:01:28.495Z,1009.83
2018-05-31T06:02:38.220Z,1009.82
2018-05-31T06:03:47.690Z,1009.86
2018-05-31T06:04:57.157Z,1009.83
2018-05-31T06:06:06.892Z,1009.84
2018-05-31T06:07:15.838Z,1009.85
2018-05-31T06:08:25.034Z,1009.86
2018-05-31T06:09:34.788Z,1009.86
2018-05-31T06:10:44.222Z,1009.91
2018-05-31T06:11:53.662Z,1009.91
2018-05-31T06:13:02.841Z,1009.89
2018-05-31T06:14:12.869Z,1009.93
2018-05-31T06:15:23.259Z,1009.93
2018-05-31T06:16:34.386Z,1009.99
2018-05-31T06:17:43.832Z,1009.96
2018-05-31T06:18:53.284Z,1009.98
2018-05-31T06:20:03.069Z,1009.98
2018-05-31T06:21:12.252Z,1010
2018-05-31T06:22:21.417Z,1010.01
2018-05-31T06:23:30.608Z,1010
2018-05-31T06:24:40.123Z,1010.03
2018-05-31T06:25:49.631Z,1010.02
2018-05-31T06:26:59.111Z,1010.05
2018-05-31T06:28:08.556Z,1010.06
2018-05-31T06:29:18.005Z,1010.1
2018-05-31T06:30:27.209Z,1010.09
2018-05-31T06:31:36.943Z,1010.09
2018-05-31T06:32:45.864Z,1010.12
2018-05-31T06:33:55.029Z,1010.14
2018-05-31T06:35:05.096Z,1010.08
2018-05-31T06:36:15.034Z,1010.07
2018-05-31T06:37:24.245Z,1010.06
2018-05-31T06:38:33.687Z,1010.09
2018-05-31T06:39:43.352Z,1010.06
2018-05-31T06:40:52.878Z,1010.07
2018-05-31T06:42:02.031Z,1010.07
2018-05-31T06:43:11.476Z,1010.02
2018-05-31T06:44:20.904Z,1009.97
2018-05-31T06:45:30.590Z,1010
2018-05-31T06:46:39.764Z,1009.99
2018-05-31T06:47:49.466Z,1009.97
2018-05-31T06:48:59.148Z,1009.95
2018-05-31T06:50:08.316Z,1009.95
2018-05-31T06:51:17.991Z,1009.93
2018-05-31T06:52:27.158Z,1009.91
2018-05-31T06:53:36.582Z,1009.93
2018-05-31T06:54:45.739Z,1009.9
2018-05-31T06:55:55.677Z,1009.94
2018-05-31T06:57:04.851Z,1009.98
2018-05-31T06:58:14.262Z,1009.93
2018-05-31T06:59:24.200Z,1009.95
2018-05-31T07:00:33.613Z,1009.93
2018-05-31T07:01:42.783Z,1009.92
2018-05-31T07:02:51.671Z,1009.97
2018-05-31T07:04:00.834Z,1009.95
2018-05-31T07:05:10.005Z,1009.94
2018-05-31T07:06:19.703Z,1009.92
2018-05-31T07:07:29.379Z,1009.99
2018-05-31T07:08:38.815Z,1009.99
2018-05-31T07:09:48.252Z,1009.99
2018-05-31T07:10:57.671Z,1009.99
2018-05-31T07:12:06.878Z,1010.07
2018-05-31T07:13:16.854Z,1010.02
2018-05-31T07:14:26.290Z,1010.07
2018-05-31T07:15:35.969Z,1010.08
2018-05-31T07:16:45.396Z,1010.13
2018-05-31T07:17:54.445Z,1010.1
2018-05-31T07:19:03.613Z,1010.12
2018-05-31T07:20:12.874Z,1010.12
2018-05-31T07:21:22.897Z,1010.1
2018-05-31T07:22:31.584Z,1010.11
2018-05-31T07:23:41.372Z,1010.09
2018-05-31T07:24:50.554Z,1010.14
2018-05-31T07:25:59.975Z,1010.16
2018-05-31T07:27:09.148Z,1010.15
2018-05-31T07:28:19.189Z,1010.18
2018-05-31T07:29:29.118Z,1010.19
2018-05-31T07:30:38.609Z,1010.19
2018-05-31T07:31:48.586Z,1010.24
2018-05-31T07:32:57.562Z,1010.25
2018-05-31T07:34:06.724Z,1010.26
2018-05-31T07:35:16.164Z,1010.28
2018-05-31T07:36:24.811Z,1010.29
2018-05-31T07:37:34.249Z,1010.33
2018-05-31T07:38:43.708Z,1010.3
2018-05-31T07:39:53.209Z,1010.32
2018-05-31T07:41:02.124Z,1010.33
2018-05-31T07:42:12.106Z,1010.32
2018-05-31T07:43:21.283Z,1010.32
2018-05-31T07:44:31.040Z,1010.34
2018-05-31T07:45:40.728Z,1010.32
2018-05-31T07:46:50.147Z,1010.33
2018-05-31T07:48:00.073Z,1010.36
2018-05-31T07:49:09.248Z,1010.31
2018-05-31T07:50:19.203Z,1010.32
2018-05-31T07:51:28.390Z,1010.35
2018-05-31T07:52:38.018Z,1010.34
2018-05-31T07:53:47.489Z,1010.34
2018-05-31T07:54:56.674Z,1010.34
2018-05-31T07:56:06.156Z,1010.31
2018-05-31T07:57:15.867Z,1010.29
2018-05-31T07:58:25.063Z,1010.3
2018-05-31T07:59:34.209Z,1010.34
2018-05-31T08:00:43.638Z,1010.35
2018-05-31T08:01:52.788Z,1010.34
2018-05-31T08:03:02.502Z,1010.33
2018-05-31T08:04:11.674Z,1010.36
2018-05-31T08:05:21.095Z,1010.36
2018-05-31T08:06:30.521Z,1010.34
2018-05-31T08:07:39.437Z,1010.4
2018-05-31T08:08:48.612Z,1010.42
2018-05-31T08:09:58.024Z,1010.4
2018-05-31T08:11:07.661Z,1010.44
2018-05-31T08:12:17.439Z,1010.44
2018-05-31T08:13:26.943Z,1010.4
2018-05-31T08:14:36.971Z,1010.45
2018-05-31T08:15:46.396Z,1010.41
2018-05-31T08:16:55.352Z,1010.46
2018-05-31T08:18:04.789Z,1010.44
2018-05-31T08:19:14.502Z,1010.45
2018-05-31T08:20:23.696Z,1010.48
2018-05-31T08:21:33.390Z,1010.44
2018-05-31T08:22:42.292Z,1010.46
2018-05-31T08:23:51.763Z,1010.47
2018-05-31T08:25:01.700Z,1010.46
2018-05-31T08:26:11.157Z,1010.46
2018-05-31T08:27:21.106Z,1010.43
2018-05-31T08:28:30.554Z,1010.4
2018-05-31T08:29:40.013Z,1010.41
2018-05-31T08:30:48.923Z,1010.38
2018-05-31T08:31:58.672Z,1010.36
2018-05-31T08:33:07.841Z,1010.37
2018-05-31T08:34:17.292Z,1010.42
2018-05-31T08:35:26.461Z,1010.37
2018-05-31T08:36:36.137Z,1010.41
2018-05-31T08:37:45.556Z,1010.38
2018-05-31T08:38:54.711Z,1010.39
2018-05-31T08:40:04.300Z,1010.39
2018-05-31T08:41:14.000Z,1010.39
2018-05-31T08:42:23.681Z,1010.43
2018-05-31T08:43:33.096Z,1010.43
2018-05-31T08:44:42.308Z,1010.41
2018-05-31T08:45:51.727Z,1010.42
2018-05-31T08:47:01.402Z,1010.45
2018-05-31T08:48:10.577Z,1010.46
2018-05-31T08:49:20.262Z,1010.49
2018-05-31T08:50:29.434Z,1010.43
2018-05-31T08:51:38.635Z,1010.44
2018-05-31T08:52:49.670Z,1010.47
2018-05-31T08:54:00.871Z,1010.48
2018-05-31T08:55:11.168Z,1010.49
2018-05-31T08:56:20.588Z,1010.51
2018-05-31T08:57:30.287Z,1010.49
2018-05-31T08:58:39.710Z,1010.53
2018-05-31T08:59:49.161Z,1010.49
2018-05-31T09:00:58.318Z,1010.51
2018-05-31T09:02:07.812Z,1010.51
2018-05-31T09:03:17.260Z,1010.5
2018-05-31T09:04:27.214Z,1010.54
2018-05-31T09:05:36.630Z,1010.55
2018-05-31T09:06:45.835Z,1010.59
2018-05-31T09:07:55.520Z,1010.56
2018-05-31T09:09:05.205Z,1010.61
2018-05-31T09:10:14.908Z,1010.63
2018-05-31T09:11:24.363Z,1010.66
2018-05-31T09:12:33.547Z,1010.66
2018-05-31T09:13:43.475Z,1010.63
2018-05-31T09:14:52.632Z,1010.66
2018-05-31T09:16:02.061Z,1010.65
2018-05-31T09:17:11.276Z,1010.64
2018-05-31T09:18:20.453Z,1010.63
2018-05-31T09:19:30.175Z,1010.65
2018-05-31T09:20:39.803Z,1010.7
2018-05-31T09:21:49.860Z,1010.67
2018-05-31T09:22:59.434Z,1010.69
2018-05-31T09:24:08.859Z,1010.69
2018-05-31T09:25:18.290Z,1010.7
2018-05-31T09:26:28.041Z,1010.71
2018-05-31T09:27:38.035Z,1010.72
2018-05-31T09:28:47.710Z,1010.72
2018-05-31T09:29:57.138Z,1010.68
2018-05-31T09:31:07.059Z,1010.71
2018-05-31T09:32:16.416Z,1010.7
2018-05-31T09:33:25.663Z,1010.72
2018-05-31T09:34:35.099Z,1010.69
2018-05-31T09:35:44.763Z,1010.7
2018-05-31T09:36:54.036Z,1010.7
2018-05-31T09:38:04.524Z,1010.7
2018-05-31T09:39:15.038Z,1010.75
2018-05-31T09:40:24.482Z,1010.7
2018-05-31T09:41:34.895Z,1010.7
2018-05-31T09:42:44.055Z,1010.69
2018-05-31T09:43:53.211Z,1010.68
2018-05-31T09:45:02.912Z,1010.66
2018-05-31T09:46:12.341Z,1010.64
2018-05-31T09:47:21.689Z,1010.68
2018-05-31T09:48:31.168Z,1010.7
2018-05-31T09:49:40.482Z,1010.7
2018-05-31T09:50:49.671Z,1010.71
2018-05-31T09:51:59.148Z,1010.73
2018-05-31T09:53:08.581Z,1010.75
2018-05-31T09:54:18.285Z,1010.79
2018-05-31T09:55:28.003Z,1010.82
2018-05-31T09:56:37.955Z,1010.79
2018-05-31T09:57:47.636Z,1010.81
2018-05-31T09:58:57.067Z,1010.86
2018-05-31T10:00:06.264Z,1010.85
2018-05-31T10:01:15.687Z,1010.8
2018-05-31T10:02:25.405Z,1010.82
2018-05-31T10:03:35.352Z,1010.78
2018-05-31T10:04:44.811Z,1010.81
2018-05-31T10:05:53.458Z,1010.81
2018-05-31T10:07:03.189Z,1010.75
2018-05-31T10:08:12.376Z,1010.76
2018-05-31T10:09:21.822Z,1010.78
2018-05-31T10:10:31.267Z,1010.76
2018-05-31T10:11:41.019Z,1010.79
2018-05-31T10:12:50.231Z,1010.79
2018-05-31T10:13:59.412Z,1010.83
2018-05-31T10:15:08.580Z,1010.81
2018-05-31T10:16:18.018Z,1010.82
2018-05-31T10:17:27.453Z,1010.82
2018-05-31T10:18:36.620Z,1010.79
2018-05-31T10:19:46.560Z,1010.79
2018-05-31T10:20:55.766Z,1010.79
2018-05-31T10:22:05.720Z,1010.82
2018-05-31T10:23:15.085Z,1010.79
2018-05-31T10:24:24.263Z,1010.76
2018-05-31T10:25:33.409Z,1010.74
2018-05-31T10:26:42.845Z,1010.73
2018-05-31T10:27:51.755Z,1010.71
2018-05-31T10:29:00.674Z,1010.7
2018-05-31T10:30:10.121Z,1010.67
2018-05-31T10:31:19.348Z,1010.69
2018-05-31T10:32:28.521Z,1010.69
2018-05-31T10:33:37.972Z,1010.67
2018-05-31T10:34:48.224Z,1010.6
2018-05-31T10:35:57.395Z,1010.6
2018-05-31T10:37:06.893Z,1010.56
2018-05-31T10:38:16.608Z,1010.57
2018-05-31T10:39:25.887Z,1010.55
2018-05-31T10:40:35.468Z,1010.47
2018-05-31T10:41:45.003Z,1010.49
2018-05-31T10:42:54.120Z,1010.49
2018-05-31T10:44:03.894Z,1010.52
2018-05-31T10:45:12.852Z,1010.5
2018-05-31T10:46:22.335Z,1010.47
2018-05-31T10:47:32.261Z,1010.52
2018-05-31T10:48:42.207Z,1010.51
2018-05-31T10:49:51.913Z,1010.47
2018-05-31T10:51:01.333Z,1010.48
2018-05-31T10:52:10.504Z,1010.51
2018-05-31T10:53:19.928Z,1010.5
2018-05-31T10:54:28.845Z,1010.45
2018-05-31T10:55:38.573Z,1010.49
2018-05-31T10:56:47.786Z,1010.5
2018-05-31T10:57:57.203Z,1010.49
2018-05-31T10:59:06.390Z,1010.52
2018-05-31T11:00:15.917Z,1010.51
2018-05-31T11:01:25.612Z,1010.5
2018-05-31T11:02:35.047Z,1010.51
2018-05-31T11:03:44.509Z,1010.51
2018-05-31T11:04:53.679Z,1010.49
2018-05-31T11:06:03.434Z,1010.48
2018-05-31T11:07:12.610Z,1010.49
2018-05-31T11:08:22.052Z,1010.47
2018-05-31T11:09:31.804Z,1010.47
2018-05-31T11:10:41.812Z,1010.43
2018-05-31T11:11:51.240Z,1010.5
2018-05-31T11:13:00.916Z,1010.53
2018-05-31T11:14:09.818Z,1010.55
2018-05-31T11:15:19.246Z,1010.54
2018-05-31T11:16:28.444Z,1010.56
2018-05-31T11:17:37.600Z,1010.56
2018-05-31T11:18:47.098Z,1010.56
2018-05-31T11:19:56.283Z,1010.55
2018-05-31T11:21:05.171Z,1010.53
2018-05-31T11:22:15.104Z,1010.52
2018-05-31T11:23:24.264Z,1010.54
2018-05-31T11:24:33.433Z,1010.51
2018-05-31T11:25:43.112Z,1010.51
2018-05-31T11:26:52.265Z,1010.58
2018-05-31T11:28:01.950Z,1010.55
2018-05-31T11:29:11.421Z,1010.6
2018-05-31T11:30:21.546Z,1010.59
2018-05-31T11:31:30.713Z,1010.56
2018-05-31T11:32:40.140Z,1010.54
2018-05-31T11:33:49.313Z,1010.5
2018-05-31T11:34:58.479Z,1010.44
2018-05-31T11:36:07.916Z,1010.44
2018-05-31T11:37:17.605Z,1010.45
2018-05-31T11:38:26.831Z,1010.41
2018-05-31T11:39:35.945Z,1010.38
2018-05-31T11:40:45.122Z,1010.37
2018-05-31T11:41:54.533Z,1010.36
2018-05-31T11:43:03.980Z,1010.3
2018-05-31T11:44:13.659Z,1010.3
2018-05-31T11:45:22.568Z,1010.25
2018-05-31T11:46:31.760Z,1010.28
2018-05-31T11:47:40.940Z,1010.31
2018-05-31T11:48:50.127Z,1010.25
2018-05-31T11:49:59.565Z,1010.29
2018-05-31T11:51:08.508Z,1010.32
2018-05-31T11:52:17.926Z,1010.32
2018-05-31T11:53:26.822Z,1010.35
2018-05-31T11:54:36.519Z,1010.33
2018-05-31T11:55:46.207Z,1010.32
2018-05-31T11:56:54.870Z,1010.33
2018-05-31T11:58:04.040Z,1010.33
2018-05-31T11:59:13.207Z,1010.34
2018-05-31T12:00:22.903Z,1010.33
2018-05-31T12:01:33.020Z,1010.31
2018-05-31T12:02:42.851Z,1010.3
2018-05-31T12:03:52.554Z,1010.27
2018-05-31T12:05:01.262Z,1010.22
2018-05-31T12:06:10.445Z,1010.18
2018-05-31T12:07:19.612Z,1010.21
2018-05-31T12:08:29.296Z,1010.18
2018-05-31T12:09:39.000Z,1010.18
2018-05-31T12:10:47.977Z,1010.21
2018-05-31T12:11:57.935Z,1010.21
2018-05-31T12:13:07.675Z,1010.18
2018-05-31T12:14:16.842Z,1010.2
2018-05-31T12:15:25.760Z,1010.13
2018-05-31T12:16:34.947Z,1010.15
2018-05-31T12:17:44.395Z,1010.14
2018-05-31T12:18:53.841Z,1010.14
2018-05-31T12:20:02.484Z,1010.12
2018-05-31T12:21:11.654Z,1010.1
2018-05-31T12:22:20.823Z,1010.12
2018-05-31T12:23:29.995Z,1010.11
2018-05-31T12:24:39.424Z,1010.13
2018-05-31T12:25:49.122Z,1010.12
2018-05-31T12:26:58.537Z,1010.14
2018-05-31T12:28:08.489Z,1010.22
2018-05-31T12:29:17.913Z,1010.17
2018-05-31T12:30:27.082Z,1010.18
2018-05-31T12:31:37.028Z,1010.24
2018-05-31T12:32:46.532Z,1010.19
2018-05-31T12:33:56.468Z,1010.17
2018-05-31T12:35:05.636Z,1010.12
2018-05-31T12:36:15.322Z,1010.16
2018-05-31T12:37:25.280Z,1010.11
2018-05-31T12:38:34.775Z,1010.15
2018-05-31T12:39:44.200Z,1010.14
2018-05-31T12:40:53.659Z,1010.11
2018-05-31T12:42:02.828Z,1010.15
2018-05-31T12:43:12.808Z,1010.15
2018-05-31T12:44:22.521Z,1010.15
2018-05-31T12:45:31.955Z,1010.17
2018-05-31T12:46:41.358Z,1010.19
2018-05-31T12:47:50.521Z,1010.23
2018-05-31T12:48:59.697Z,1010.2
2018-05-31T12:50:08.868Z,1010.18
2018-05-31T12:51:18.580Z,1010.15
2018-05-31T12:52:27.479Z,1010.11
2018-05-31T12:53:36.674Z,1010.07
2018-05-31T12:54:46.879Z,1010.08
2018-05-31T12:55:56.338Z,1010.11
2018-05-31T12:57:05.534Z,1010.05
2018-05-31T12:58:14.708Z,1010.06
2018-05-31T12:59:23.855Z,1010.1
2018-05-31T13:00:33.268Z,1010.04
2018-05-31T13:01:42.736Z,1010.05
2018-05-31T13:02:52.418Z,1010.02
2018-05-31T13:04:02.109Z,1009.97
2018-05-31T13:05:11.537Z,1009.9
2018-05-31T13:06:21.222Z,1009.84
2018-05-31T13:07:30.644Z,1009.83
2018-05-31T13:08:40.323Z,1009.82
2018-05-31T13:09:49.764Z,1009.78
2018-05-31T13:10:59.194Z,1009.76
2018-05-31T13:12:08.624Z,1009.76
2018-05-31T13:13:17.818Z,1009.74
2018-05-31T13:14:26.984Z,1009.75
2018-05-31T13:15:35.880Z,1009.71
2018-05-31T13:16:45.816Z,1009.72
2018-05-31T13:17:54.719Z,1009.7
2018-05-31T13:19:04.413Z,1009.65
2018-05-31T13:20:13.360Z,1009.7
2018-05-31T13:21:22.519Z,1009.69
2018-05-31T13:22:31.944Z,1009.65
2018-05-31T13:23:41.171Z,1009.65
2018-05-31T13:24:50.603Z,1009.61
2018-05-31T13:25:59.255Z,1009.61
2018-05-31T13:27:08.413Z,1009.6
2018-05-31T13:28:17.577Z,1009.62
2018-05-31T13:29:27.522Z,1009.6
2018-05-31T13:30:36.722Z,1009.6
2018-05-31T13:31:46.427Z,1009.62
2018-05-31T13:32:55.599Z,1009.65
2018-05-31T13:34:05.297Z,1009.64
2018-05-31T13:35:14.481Z,1009.64
2018-05-31T13:36:24.151Z,1009.66
2018-05-31T13:37:34.098Z,1009.64
2018-05-31T13:38:43.539Z,1009.65
2018-05-31T13:39:53.208Z,1009.68
2018-05-31T13:41:02.636Z,1009.63
2018-05-31T13:42:11.817Z,1009.6
2018-05-31T13:43:21.504Z,1009.62
2018-05-31T13:44:31.186Z,1009.67
2018-05-31T13:45:40.615Z,1009.63
2018-05-31T13:46:49.830Z,1009.68
2018-05-31T13:47:59.006Z,1009.69
2018-05-31T13:49:07.665Z,1009.67
2018-05-31T13:50:17.115Z,1009.66
2018-05-31T13:51:26.305Z,1009.63
2018-05-31T13:52:35.986Z,1009.6
2018-05-31T13:53:45.677Z,1009.6
2018-05-31T13:54:54.858Z,1009.57
2018-05-31T13:56:04.025Z,1009.56
2018-05-31T13:57:12.938Z,1009.61
2018-05-31T13:58:22.621Z,1009.58
2018-05-31T13:59:32.045Z,1009.55
2018-05-31T14:00:41.480Z,1009.56
2018-05-31T14:01:50.147Z,1009.55
2018-05-31T14:03:00.299Z,1009.56
2018-05-31T14:04:09.742Z,1009.55